createdAt,value
2022-11-20T00:00:00.128Z,5.61
2022-11-20T00:02:26.695Z,5.40
2022-11-20T00:04:53.181Z,5.57
2022-11-20T00:07:19.612Z,5.77
2022-11-20T00:09:46.026Z,5.78
2022-11-20T00:12:12.480Z,5.59
2022-11-20T00:14:38.914Z,5.56
2022-11-20T00:17:05.302Z,5.77
2022-11-20T00:19:31.690Z,5.74
2022-11-20T00:21:58.079Z,5.71
2022-11-20T00:24:24.471Z,5.81
2022-11-20T00:26:50.942Z,5.85
2022-11-20T00:29:17.443Z,5.68
2022-11-20T00:31:43.855Z,5.78
2022-11-20T00:34:11.004Z,5.81
2022-11-20T00:36:37.421Z,5.83
2022-11-20T00:39:03.866Z,5.73
2022-11-20T00:41:30.587Z,5.83
2022-11-20T00:43:57.183Z,5.37
2022-11-20T00:46:24.776Z,5.67
2022-11-20T00:48:51.364Z,5.82
2022-11-20T00:51:19.107Z,5.73
2022-11-20T00:53:45.565Z,5.75
2022-11-20T00:56:13.166Z,5.74
2022-11-20T00:58:40.432Z,5.74
2022-11-20T01:01:06.876Z,5.42
2022-11-20T01:03:33.661Z,5.65
2022-11-20T01:06:00.851Z,5.69
2022-11-20T01:08:29.946Z,5.79
2022-11-20T01:10:59.738Z,5.85
2022-11-20T01:13:38.414Z,5.66
2022-11-20T01:16:05.856Z,5.62
2022-11-20T01:18:32.496Z,5.75
2022-11-20T01:21:09.465Z,5.76
2022-11-20T01:23:36.985Z,5.78
2022-11-20T01:26:04.575Z,5.80
2022-11-20T01:28:31.445Z,5.84
2022-11-20T01:30:58.348Z,5.87
2022-11-20T01:33:24.784Z,5.83
2022-11-20T01:35:51.351Z,5.87
2022-11-20T01:38:17.834Z,5.87
2022-11-20T01:40:44.464Z,5.86
2022-11-20T01:43:23.663Z,5.83
2022-11-20T01:45:50.039Z,5.78
2022-11-20T01:48:16.927Z,5.77
2022-11-20T01:50:43.754Z,5.75
2022-11-20T01:53:12.606Z,5.82
2022-11-20T01:55:42.675Z,5.77
2022-11-20T01:58:09.439Z,5.86
2022-11-20T02:00:35.955Z,5.90
2022-11-20T02:03:05.410Z,5.81
2022-11-20T02:05:37.915Z,5.50
2022-11-20T02:08:05.270Z,5.05
2022-11-20T02:10:31.855Z,4.86
2022-11-20T02:13:17.292Z,5.57
2022-11-20T02:15:44.378Z,5.48
2022-11-20T02:18:12.567Z,5.67
2022-11-20T02:20:40.710Z,5.67
2022-11-20T02:23:13.453Z,5.78
2022-11-20T02:25:40.793Z,5.81
2022-11-20T02:28:07.282Z,5.85
2022-11-20T02:30:33.714Z,5.86
2022-11-20T02:33:00.121Z,5.86
2022-11-20T02:35:26.493Z,5.84
2022-11-20T02:37:54.850Z,5.79
2022-11-20T02:40:21.255Z,5.74
2022-11-20T02:42:47.618Z,5.72
2022-11-20T02:45:14.013Z,5.73
2022-11-20T02:47:40.646Z,5.68
2022-11-20T02:50:07.172Z,5.66
2022-11-20T02:52:33.537Z,5.61
2022-11-20T02:54:59.886Z,5.58
2022-11-20T02:57:26.277Z,5.54
2022-11-20T02:59:52.721Z,5.53
2022-11-20T03:02:19.155Z,5.52
2022-11-20T03:04:45.514Z,5.48
2022-11-20T03:07:11.886Z,5.43
2022-11-20T03:09:38.282Z,5.41
2022-11-20T03:12:04.882Z,5.38
2022-11-20T03:14:31.307Z,5.37
2022-11-20T03:16:57.863Z,5.35
2022-11-20T03:19:24.622Z,5.32
2022-11-20T03:21:51.122Z,5.33
2022-11-20T03:24:17.752Z,5.29
2022-11-20T03:26:44.348Z,5.28
2022-11-20T03:29:10.723Z,5.23
2022-11-20T03:31:41.378Z,5.19
2022-11-20T03:34:08.878Z,5.15
2022-11-20T03:36:35.264Z,5.13
2022-11-20T03:39:01.670Z,5.09
2022-11-20T03:41:29.505Z,5.08
2022-11-20T03:43:57.087Z,5.04
2022-11-20T03:46:23.710Z,5.02
2022-11-20T03:48:52.183Z,5.01
2022-11-20T03:51:20.142Z,5.01
2022-11-20T03:53:47.472Z,4.97
2022-11-20T03:56:14.989Z,4.97
2022-11-20T03:58:41.853Z,4.97
2022-11-20T04:01:09.389Z,4.96
2022-11-20T04:03:36.433Z,4.90
2022-11-20T04:06:13.488Z,4.88
2022-11-20T04:08:40.337Z,4.87
2022-11-20T04:11:12.639Z,4.84
2022-11-20T04:13:39.003Z,4.87
2022-11-20T04:16:06.467Z,4.89
2022-11-20T04:18:33.282Z,4.85
2022-11-20T04:20:59.795Z,4.84
2022-11-20T04:23:28.819Z,4.80
2022-11-20T04:25:55.394Z,4.76
2022-11-20T04:28:21.754Z,4.59
2022-11-20T04:30:48.166Z,4.68
2022-11-20T04:33:14.581Z,4.79
2022-11-20T04:35:41.072Z,4.80
2022-11-20T04:38:07.495Z,4.84
2022-11-20T04:40:33.848Z,4.83
2022-11-20T04:43:00.317Z,4.83
2022-11-20T04:45:26.660Z,4.74
2022-11-20T04:47:53.563Z,4.83
2022-11-20T04:50:19.914Z,4.86
2022-11-20T04:52:46.230Z,4.78
2022-11-20T04:55:12.612Z,4.83
2022-11-20T04:57:38.950Z,4.80
2022-11-20T05:00:05.631Z,4.89
2022-11-20T05:02:32.166Z,4.73
2022-11-20T05:04:58.677Z,4.88
2022-11-20T05:07:25.111Z,4.90
2022-11-20T05:09:51.575Z,4.80
2022-11-20T05:12:17.927Z,4.81
2022-11-20T05:14:44.289Z,4.84
2022-11-20T05:17:11.391Z,4.69
2022-11-20T05:19:37.757Z,4.83
2022-11-20T05:22:05.093Z,4.87
2022-11-20T05:24:31.462Z,4.89
2022-11-20T05:26:57.865Z,4.96
2022-11-20T05:29:24.222Z,4.90
2022-11-20T05:31:50.581Z,4.88
2022-11-20T05:34:16.939Z,4.90
2022-11-20T05:36:43.309Z,4.92
2022-11-20T05:39:10.609Z,4.95
2022-11-20T05:41:36.961Z,4.94
2022-11-20T05:44:03.368Z,4.92
2022-11-20T05:46:29.979Z,4.94
2022-11-20T05:48:57.111Z,4.89
2022-11-20T05:51:23.853Z,4.91
2022-11-20T05:53:50.251Z,4.95
2022-11-20T05:56:18.290Z,4.89
2022-11-20T05:58:44.823Z,4.93
2022-11-20T06:01:11.193Z,4.98
2022-11-20T06:03:37.873Z,4.91
2022-11-20T06:06:05.333Z,5.07
2022-11-20T06:08:32.175Z,5.02
2022-11-20T06:10:58.554Z,4.99
2022-11-20T06:13:25.445Z,4.96
2022-11-20T06:15:52.696Z,4.96
2022-11-20T06:18:19.564Z,4.98
2022-11-20T06:20:46.603Z,4.98
2022-11-20T06:23:13.548Z,4.95
2022-11-20T06:25:43.619Z,4.98
2022-11-20T06:28:10.413Z,4.96
2022-11-20T06:30:36.870Z,4.97
2022-11-20T06:33:03.247Z,4.97
2022-11-20T06:35:29.694Z,4.95
2022-11-20T06:37:57.096Z,5.02
2022-11-20T06:40:23.521Z,4.98
2022-11-20T06:42:49.859Z,4.90
2022-11-20T06:45:16.246Z,4.52
2022-11-20T06:47:42.755Z,4.78
2022-11-20T06:50:09.286Z,4.95
2022-11-20T06:52:38.375Z,5.02
2022-11-20T06:55:08.873Z,4.97
2022-11-20T06:57:35.261Z,4.98
2022-11-20T07:00:01.806Z,5.00
2022-11-20T07:02:28.194Z,4.95
2022-11-20T07:04:54.568Z,4.96
2022-11-20T07:07:21.038Z,4.96
2022-11-20T07:09:47.416Z,4.95
2022-11-20T07:12:13.793Z,4.89
2022-11-20T07:14:40.196Z,4.89
2022-11-20T07:17:06.607Z,4.88
2022-11-20T07:19:32.994Z,4.87
2022-11-20T07:21:59.375Z,4.86
2022-11-20T07:24:25.769Z,4.86
2022-11-20T07:26:52.125Z,4.83
2022-11-20T07:29:18.551Z,4.79
2022-11-20T07:31:45.069Z,4.80
2022-11-20T07:34:11.541Z,4.80
2022-11-20T07:36:37.956Z,4.78
2022-11-20T07:39:04.390Z,4.76
2022-11-20T07:41:30.832Z,4.78
2022-11-20T07:43:57.350Z,4.81
2022-11-20T07:46:23.716Z,4.77
2022-11-20T07:48:50.122Z,4.74
2022-11-20T07:51:16.531Z,4.73
2022-11-20T07:53:42.923Z,4.69
2022-11-20T07:56:09.398Z,4.71
2022-11-20T07:58:35.927Z,4.75
2022-11-20T08:01:05.759Z,4.76
2022-11-20T08:03:32.306Z,4.74
2022-11-20T08:06:02.017Z,4.74
2022-11-20T08:08:32.218Z,4.74
2022-11-20T08:11:20.197Z,4.75
2022-11-20T08:14:05.041Z,4.74
2022-11-20T08:16:31.537Z,4.76
2022-11-20T08:18:58.027Z,4.51
2022-11-20T08:21:24.860Z,4.70
2022-11-20T08:23:51.407Z,4.74
2022-11-20T08:26:17.774Z,4.81
2022-11-20T08:28:44.965Z,4.82
2022-11-20T08:31:11.423Z,4.76
2022-11-20T08:33:37.850Z,4.74
2022-11-20T08:36:04.542Z,4.64
2022-11-20T08:38:31.524Z,4.55
2022-11-20T08:41:17.621Z,4.64
2022-11-20T08:43:44.071Z,4.84
2022-11-20T08:46:10.454Z,4.88
2022-11-20T08:48:36.931Z,4.92
2022-11-20T08:51:03.458Z,4.93
2022-11-20T08:53:29.838Z,4.70
2022-11-20T08:55:57.626Z,4.94
2022-11-20T08:58:23.993Z,4.69
2022-11-20T09:00:50.414Z,4.85
2022-11-20T09:03:16.809Z,4.67
2022-11-20T09:05:43.769Z,4.91
2022-11-20T09:08:10.221Z,4.65
2022-11-20T09:10:37.440Z,4.87
2022-11-20T09:13:03.798Z,4.81
2022-11-20T09:15:30.187Z,4.94
2022-11-20T09:17:57.971Z,4.99
2022-11-20T09:20:24.525Z,4.95
2022-11-20T09:22:50.921Z,4.86
2022-11-20T09:25:17.381Z,4.87
2022-11-20T09:27:45.018Z,4.79
2022-11-20T09:30:11.853Z,4.87
2022-11-20T09:32:39.789Z,4.71
2022-11-20T09:35:06.295Z,4.47
2022-11-20T09:37:32.727Z,4.29
2022-11-20T09:39:59.190Z,4.55
2022-11-20T09:42:44.435Z,4.89
2022-11-20T09:45:16.997Z,4.93
2022-11-20T09:47:44.447Z,4.97
2022-11-20T09:50:29.268Z,5.06
2022-11-20T09:53:14.073Z,5.27
2022-11-20T09:55:40.645Z,5.20
2022-11-20T09:58:08.501Z,5.19
2022-11-20T10:00:36.746Z,5.45
2022-11-20T10:03:03.299Z,5.49
2022-11-20T10:05:37.817Z,5.47
2022-11-20T10:08:10.668Z,5.53
2022-11-20T10:10:44.291Z,5.52
2022-11-20T10:13:20.006Z,5.26
2022-11-20T10:15:58.478Z,5.26
2022-11-20T10:18:40.494Z,5.24
2022-11-20T10:21:17.262Z,5.05
2022-11-20T10:23:43.622Z,5.10
2022-11-20T10:26:28.683Z,5.24
2022-11-20T10:29:04.700Z,4.99
2022-11-20T10:31:35.304Z,5.22
2022-11-20T10:34:12.136Z,5.47
2022-11-20T10:36:51.649Z,5.38
2022-11-20T10:39:23.781Z,5.18
2022-11-20T10:41:52.810Z,5.19
2022-11-20T10:44:40.151Z,5.28
2022-11-20T10:47:11.146Z,5.14
2022-11-20T10:49:37.618Z,5.25
2022-11-20T10:52:11.189Z,5.01
2022-11-20T10:54:42.040Z,5.33
2022-11-20T10:57:28.681Z,5.22
2022-11-20T11:00:04.505Z,5.48
2022-11-20T11:02:37.266Z,5.27
2022-11-20T11:05:14.372Z,5.45
2022-11-20T11:07:41.463Z,5.23
2022-11-20T11:10:15.362Z,5.38
2022-11-20T11:12:44.660Z,5.40
2022-11-20T11:15:16.259Z,5.57
2022-11-20T11:17:48.762Z,5.54
2022-11-20T11:20:19.137Z,5.50
2022-11-20T11:22:47.319Z,5.44
2022-11-20T11:25:21.039Z,5.44
2022-11-20T11:27:48.706Z,5.49
2022-11-20T11:30:16.903Z,5.58
2022-11-20T11:32:43.620Z,5.51
2022-11-20T11:35:20.604Z,5.66
2022-11-20T11:37:48.827Z,5.37
2022-11-20T11:40:23.881Z,5.45
2022-11-20T11:42:53.854Z,5.42
2022-11-20T11:45:20.393Z,5.50
2022-11-20T11:47:48.781Z,5.40
2022-11-20T11:50:16.159Z,5.67
2022-11-20T11:52:42.506Z,5.77
2022-11-20T11:55:11.893Z,5.72
2022-11-20T11:57:41.153Z,5.87
2022-11-20T12:00:12.983Z,5.83
2022-11-20T12:02:39.445Z,5.64
2022-11-20T12:05:24.783Z,5.84
2022-11-20T12:08:12.166Z,5.87
2022-11-20T12:10:42.045Z,5.74
2022-11-20T12:13:25.530Z,5.70
2022-11-20T12:15:52.109Z,5.50
2022-11-20T12:18:20.602Z,5.63
2022-11-20T12:20:54.210Z,5.80
2022-11-20T12:23:29.322Z,5.99
2022-11-20T12:25:57.974Z,5.78
2022-11-20T12:28:43.813Z,5.67
2022-11-20T12:31:13.166Z,6.04
2022-11-20T12:33:58.375Z,5.95
2022-11-20T12:36:24.722Z,5.98
2022-11-20T12:38:51.066Z,5.81
2022-11-20T12:41:45.494Z,5.78
2022-11-20T12:44:30.319Z,6.07
2022-11-20T12:47:09.660Z,6.00
2022-11-20T12:49:43.696Z,5.93
2022-11-20T12:52:13.185Z,5.75
2022-11-20T12:54:58.448Z,5.94
2022-11-20T12:57:24.814Z,5.93
2022-11-20T13:00:10.768Z,5.71
2022-11-20T13:02:46.277Z,5.96
2022-11-20T13:05:18.811Z,6.05
2022-11-20T13:07:45.775Z,5.88
2022-11-20T13:10:16.954Z,5.87
2022-11-20T13:12:48.974Z,5.77
2022-11-20T13:15:32.446Z,5.97
2022-11-20T13:18:00.269Z,5.87
2022-11-20T13:20:27.070Z,5.72
2022-11-20T13:23:00.651Z,5.68
2022-11-20T13:25:28.219Z,5.76
2022-11-20T13:27:55.427Z,5.85
2022-11-20T13:30:23.194Z,5.84
2022-11-20T13:32:52.810Z,5.97
2022-11-20T13:35:30.632Z,5.81
2022-11-20T13:38:01.478Z,5.93
2022-11-20T13:40:27.948Z,6.09
2022-11-20T13:43:13.254Z,6.14
2022-11-20T13:45:39.635Z,6.04
2022-11-20T13:48:19.932Z,5.95
2022-11-20T13:51:09.550Z,6.06
2022-11-20T13:53:54.554Z,6.03
2022-11-20T13:56:35.779Z,5.97
2022-11-20T13:59:09.616Z,5.97
2022-11-20T14:01:38.835Z,6.12
2022-11-20T14:04:09.831Z,5.85
2022-11-20T14:06:43.697Z,5.86
2022-11-20T14:09:14.684Z,5.85
2022-11-20T14:11:47.253Z,5.95
2022-11-20T14:14:16.464Z,5.89
2022-11-20T14:16:44.107Z,6.05
2022-11-20T14:19:31.602Z,5.90
2022-11-20T14:22:09.121Z,5.80
2022-11-20T14:24:35.817Z,6.00
2022-11-20T14:27:02.750Z,5.96
2022-11-20T14:29:36.610Z,5.87
2022-11-20T14:32:04.125Z,5.80
2022-11-20T14:34:32.127Z,5.79
2022-11-20T14:37:01.304Z,5.64
2022-11-20T14:39:31.657Z,5.65
2022-11-20T14:41:58.045Z,5.55
2022-11-20T14:44:27.143Z,5.71
2022-11-20T14:46:54.057Z,5.76
2022-11-20T14:49:20.745Z,5.79
2022-11-20T14:51:47.473Z,5.68
2022-11-20T14:54:16.995Z,5.59
2022-11-20T14:56:54.207Z,5.57
2022-11-20T14:59:24.443Z,5.76
2022-11-20T15:02:01.923Z,5.92
2022-11-20T15:04:28.674Z,5.72
2022-11-20T15:06:56.697Z,5.58
2022-11-20T15:09:23.398Z,5.71
2022-11-20T15:11:59.914Z,5.75
2022-11-20T15:14:27.377Z,5.71
2022-11-20T15:16:54.129Z,5.86
2022-11-20T15:19:24.781Z,5.92
2022-11-20T15:21:51.513Z,5.74
2022-11-20T15:24:18.076Z,5.79
2022-11-20T15:26:44.976Z,5.76
2022-11-20T15:29:15.883Z,5.83
2022-11-20T15:31:42.349Z,5.97
2022-11-20T15:34:11.383Z,5.97
2022-11-20T15:36:37.803Z,5.74
2022-11-20T15:39:04.318Z,5.71
2022-11-20T15:41:30.698Z,5.72
2022-11-20T15:43:57.126Z,5.84
2022-11-20T15:46:27.196Z,5.81
2022-11-20T15:48:55.947Z,5.65
2022-11-20T15:51:25.813Z,5.79
2022-11-20T15:53:52.180Z,5.90
2022-11-20T15:56:18.584Z,6.03
2022-11-20T15:58:45.024Z,5.95
2022-11-20T16:01:15.996Z,5.80
2022-11-20T16:03:42.749Z,5.78
2022-11-20T16:06:09.170Z,5.81
2022-11-20T16:08:35.794Z,5.68
2022-11-20T16:11:02.331Z,5.55
2022-11-20T16:13:47.664Z,5.48
2022-11-20T16:16:29.602Z,5.52
2022-11-20T16:18:55.995Z,5.52
2022-11-20T16:21:28.372Z,5.69
2022-11-20T16:23:54.849Z,5.63
2022-11-20T16:26:21.665Z,5.61
2022-11-20T16:28:48.083Z,5.57
2022-11-20T16:31:15.952Z,5.51
2022-11-20T16:33:42.388Z,5.60
2022-11-20T16:36:12.862Z,5.54
2022-11-20T16:38:39.295Z,5.60
2022-11-20T16:41:06.427Z,5.54
2022-11-20T16:43:32.875Z,5.58
2022-11-20T16:45:59.323Z,5.71
2022-11-20T16:48:25.732Z,5.64
2022-11-20T16:50:53.059Z,5.62
2022-11-20T16:53:20.444Z,5.63
2022-11-20T16:55:46.804Z,5.63
2022-11-20T16:58:13.705Z,5.61
2022-11-20T17:00:40.614Z,5.66
2022-11-20T17:03:07.283Z,5.58
2022-11-20T17:05:34.367Z,5.68
2022-11-20T17:08:01.075Z,5.63
2022-11-20T17:10:27.449Z,5.70
2022-11-20T17:12:54.120Z,5.75
2022-11-20T17:15:20.451Z,5.74
2022-11-20T17:17:46.818Z,5.74
2022-11-20T17:20:13.279Z,5.75
2022-11-20T17:22:39.682Z,5.79
2022-11-20T17:25:06.162Z,5.72
2022-11-20T17:27:32.536Z,5.68
2022-11-20T17:29:59.016Z,5.72
2022-11-20T17:32:25.445Z,5.79
2022-11-20T17:34:51.889Z,5.74
2022-11-20T17:37:18.366Z,5.78
2022-11-20T17:39:45.232Z,5.80
2022-11-20T17:42:26.831Z,5.82
2022-11-20T17:44:53.255Z,5.80
2022-11-20T17:47:19.681Z,5.86
2022-11-20T17:49:46.089Z,5.82
2022-11-20T17:52:12.574Z,5.82
2022-11-20T17:54:38.953Z,5.85
2022-11-20T17:57:25.095Z,5.80
2022-11-20T17:59:51.445Z,6.00
2022-11-20T18:02:17.858Z,6.00
2022-11-20T18:04:44.881Z,5.92
2022-11-20T18:07:11.313Z,5.94
2022-11-20T18:09:37.682Z,5.90
2022-11-20T18:12:04.222Z,5.87
2022-11-20T18:14:34.521Z,5.87
2022-11-20T18:17:05.433Z,5.86
2022-11-20T18:19:40.272Z,5.81
2022-11-20T18:22:12.066Z,5.88
2022-11-20T18:24:39.452Z,5.95
2022-11-20T18:27:07.060Z,5.94
2022-11-20T18:29:33.729Z,5.97
2022-11-20T18:32:00.511Z,5.98
2022-11-20T18:34:27.380Z,5.97
2022-11-20T18:36:53.798Z,5.99
2022-11-20T18:39:20.196Z,5.95
2022-11-20T18:42:05.458Z,5.94
2022-11-20T18:44:51.313Z,6.00
2022-11-20T18:47:19.346Z,5.97
2022-11-20T18:49:51.034Z,6.08
2022-11-20T18:52:18.771Z,6.16
2022-11-20T18:54:45.391Z,6.12
2022-11-20T18:57:14.747Z,6.17
2022-11-20T18:59:42.902Z,6.13
2022-11-20T19:02:10.213Z,6.10
2022-11-20T19:04:36.721Z,6.23
2022-11-20T19:07:03.435Z,6.27
2022-11-20T19:09:29.926Z,6.30
2022-11-20T19:11:56.540Z,6.44
2022-11-20T19:14:23.050Z,6.37
2022-11-20T19:16:51.403Z,6.39
2022-11-20T19:19:17.969Z,6.47
2022-11-20T19:21:44.380Z,6.64
2022-11-20T19:24:10.864Z,6.59
2022-11-20T19:26:37.559Z,6.64
2022-11-20T19:29:05.046Z,6.62
2022-11-20T19:31:31.439Z,6.73
2022-11-20T19:33:58.808Z,6.76
2022-11-20T19:36:26.554Z,6.79
2022-11-20T19:38:53.782Z,6.76
2022-11-20T19:41:21.734Z,6.94
2022-11-20T19:43:50.911Z,6.96
2022-11-20T19:46:18.561Z,7.01
2022-11-20T19:48:44.958Z,7.02
2022-11-20T19:51:15.766Z,6.99
2022-11-20T19:53:42.287Z,6.99
2022-11-20T19:56:09.035Z,6.96
2022-11-20T19:58:36.111Z,6.92
2022-11-20T20:01:06.347Z,6.97
2022-11-20T20:03:32.987Z,7.07
2022-11-20T20:06:03.883Z,7.04
2022-11-20T20:08:30.936Z,6.98
2022-11-20T20:10:59.609Z,6.96
2022-11-20T20:13:26.288Z,7.04
2022-11-20T20:15:52.708Z,7.14
2022-11-20T20:18:19.071Z,7.10
2022-11-20T20:20:45.464Z,7.04
2022-11-20T20:23:11.818Z,7.12
2022-11-20T20:25:38.423Z,7.09
2022-11-20T20:28:05.208Z,7.08
2022-11-20T20:30:31.622Z,7.12
2022-11-20T20:32:58.044Z,7.12
2022-11-20T20:35:24.608Z,7.12
2022-11-20T20:37:50.988Z,7.09
2022-11-20T20:40:18.929Z,7.10
2022-11-20T20:42:45.342Z,7.10
2022-11-20T20:45:11.765Z,7.11
2022-11-20T20:47:39.687Z,7.05
2022-11-20T20:50:07.085Z,7.12
2022-11-20T20:52:33.479Z,7.16
2022-11-20T20:55:00.057Z,7.26
2022-11-20T20:57:28.438Z,7.24
2022-11-20T20:59:55.512Z,7.21
2022-11-20T21:02:22.581Z,7.21
2022-11-20T21:04:49.875Z,7.21
2022-11-20T21:07:16.851Z,7.16
2022-11-20T21:09:43.283Z,7.17
2022-11-20T21:12:09.971Z,7.20
2022-11-20T21:14:36.475Z,7.25
2022-11-20T21:17:02.905Z,7.22
2022-11-20T21:19:29.276Z,7.25
2022-11-20T21:22:04.442Z,7.24
2022-11-20T21:24:35.127Z,7.28
2022-11-20T21:27:02.833Z,7.30
2022-11-20T21:29:29.750Z,7.31
2022-11-20T21:31:56.815Z,7.28
2022-11-20T21:34:23.930Z,7.30
2022-11-20T21:36:50.608Z,7.28
2022-11-20T21:39:17.437Z,7.27
2022-11-20T21:41:43.909Z,7.25
2022-11-20T21:46:59.147Z,7.22
2022-11-20T21:49:25.844Z,7.20
2022-11-20T21:51:53.674Z,7.18
2022-11-20T21:54:20.196Z,7.17
2022-11-20T21:56:46.658Z,7.16
2022-11-20T21:59:13.899Z,7.15
2022-11-20T22:01:40.486Z,7.15
2022-11-20T22:04:08.064Z,7.17
2022-11-20T22:06:34.586Z,7.14
2022-11-20T22:09:04.118Z,7.10
2022-11-20T22:11:30.658Z,7.17
2022-11-20T22:14:15.871Z,7.15
2022-11-20T22:16:42.288Z,7.14
2022-11-20T22:19:08.848Z,7.12
2022-11-20T22:21:35.287Z,7.17
2022-11-20T22:24:01.812Z,7.15
2022-11-20T22:26:29.799Z,7.15
2022-11-20T22:28:57.149Z,7.16
2022-11-20T22:31:24.812Z,7.15
2022-11-20T22:33:51.563Z,7.13
2022-11-20T22:36:19.928Z,7.13
2022-11-20T22:38:46.617Z,7.14
2022-11-20T22:41:17.684Z,7.11
2022-11-20T22:43:44.483Z,7.11
2022-11-20T22:46:12.319Z,7.08
2022-11-20T22:48:39.885Z,7.07
2022-11-20T22:51:10.654Z,7.10
2022-11-20T22:53:37.334Z,7.10
2022-11-20T22:56:06.574Z,7.04
2022-11-20T22:58:33.704Z,7.07
2022-11-20T23:01:26.474Z,7.06
2022-11-20T23:03:55.352Z,7.03
2022-11-20T23:06:22.381Z,7.04
2022-11-20T23:08:49.915Z,7.04
2022-11-20T23:11:16.314Z,7.05
2022-11-20T23:13:43.773Z,7.00
2022-11-20T23:16:11.517Z,7.03
2022-11-20T23:18:38.221Z,7.07
2022-11-20T23:21:05.565Z,7.03
2022-11-20T23:23:32.117Z,7.03
2022-11-20T23:26:05.902Z,7.07
2022-11-20T23:28:32.418Z,7.04
2022-11-20T23:30:58.999Z,7.03
2022-11-20T23:33:25.403Z,7.03
2022-11-20T23:35:52.209Z,7.04
2022-11-20T23:38:18.700Z,7.05
2022-11-20T23:40:48.787Z,7.05
2022-11-20T23:43:15.762Z,7.07
2022-11-20T23:45:43.103Z,7.07
2022-11-20T23:48:09.856Z,7.10
2022-11-20T23:50:36.512Z,7.10
2022-11-20T23:53:03.126Z,7.10
2022-11-20T23:55:29.543Z,7.09
2022-11-20T23:57:56.244Z,7.08
